Time;durP1;ratioP1;P1;durP2;ratioP2;P2;SDS_P1;SDS_P2;PMS_P1;PMS_P2;Temp;Humidity;BMP_temperature;BMP_pressure;BME280_temperature;BME280_humidity;BME280_pressure;Samples;Min_cycle;Max_cycle;Signal;HPM_P1;HPM_P2
2024/01/20 00:01:23;;;;;;;9.60;9.30;;;-0.90;99.90;;;;;;6197192;23;20221;-81
2024/01/20 00:03:51;;;;;;;9.60;9.30;;;-0.90;99.90;;;;;;6198488;23;20202;-81
2024/01/20 00:06:18;;;;;;;9.67;9.37;;;-0.90;99.90;;;;;;6198803;23;20206;-81
2024/01/20 00:08:47;;;;;;;9.70;9.40;;;-0.90;99.90;;;;;;6199194;23;20194;-81
2024/01/20 00:11:15;;;;;;;9.53;9.23;;;-0.90;99.90;;;;;;6198575;23;20195;-81
2024/01/20 00:13:42;;;;;;;9.70;9.40;;;-1.00;99.90;;;;;;6198820;23;20290;-81
2024/01/20 00:16:09;;;;;;;9.47;9.17;;;-1.00;99.90;;;;;;6199413;23;20247;-81
2024/01/20 00:18:37;;;;;;;9.37;9.07;;;-1.00;99.90;;;;;;6209936;23;20250;-81
2024/01/20 00:21:07;;;;;;;9.80;9.50;;;-1.10;99.90;;;;;;6203056;23;20196;-82
2024/01/20 00:23:34;;;;;;;9.43;9.13;;;-1.20;99.90;;;;;;6199561;23;20300;-82
2024/01/20 00:26:03;;;;;;;10.00;9.70;;;-1.20;99.90;;;;;;6198390;23;20199;-81
2024/01/20 00:28:30;;;;;;;9.47;9.17;;;-1.20;99.90;;;;;;6198450;23;20228;-82
2024/01/20 00:30:58;;;;;;;9.80;9.50;;;-1.20;99.90;;;;;;6199996;23;20203;-81
2024/01/20 00:33:25;;;;;;;9.70;9.40;;;-1.20;99.90;;;;;;6199889;23;20206;-82
2024/01/20 00:35:53;;;;;;;9.80;9.50;;;-1.20;99.90;;;;;;6199462;23;20193;-81
2024/01/20 00:38:20;;;;;;;9.50;9.20;;;-1.20;99.90;;;;;;6207263;23;20254;-82
2024/01/20 00:40:48;;;;;;;9.43;9.13;;;-1.10;99.90;;;;;;6202028;23;20207;-81
2024/01/20 00:43:16;;;;;;;9.40;9.10;;;-1.20;99.90;;;;;;6200197;23;20208;-81
2024/01/20 00:45:44;;;;;;;9.13;8.87;;;-1.20;99.90;;;;;;6199423;23;20205;-82
2024/01/20 00:48:13;;;;;;;9.50;9.20;;;-1.20;99.90;;;;;;6197339;23;20203;-81
2024/01/20 00:50:41;;;;;;;9.53;9.23;;;-1.20;99.90;;;;;;6198629;23;20202;-81
2024/01/20 00:53:08;;;;;;;9.37;9.07;;;-1.30;99.90;;;;;;6198468;23;20186;-81
2024/01/20 00:55:35;;;;;;;9.53;9.23;;;-1.30;99.90;;;;;;6198793;23;20205;-81
2024/01/20 00:58:03;;;;;;;9.40;9.10;;;-1.30;99.90;;;;;;6197991;23;20223;-81
2024/01/20 01:00:32;;;;;;;9.33;9.03;;;-1.40;99.90;;;;;;6197145;23;20261;-81
2024/01/20 01:02:59;;;;;;;9.43;9.13;;;-1.50;99.90;;;;;;6196953;23;20223;-81
2024/01/20 01:05:26;;;;;;;9.17;8.87;;;-1.60;99.90;;;;;;6198174;23;20193;-81
2024/01/20 01:07:53;;;;;;;9.60;9.30;;;-1.70;99.90;;;;;;6198094;23;20223;-81
2024/01/20 01:10:21;;;;;;;9.23;8.93;;;-1.70;99.90;;;;;;6198470;23;20235;-81
2024/01/20 01:12:49;;;;;;;9.27;8.97;;;-1.70;99.90;;;;;;6198928;23;20631;-82
2024/01/20 01:15:16;;;;;;;9.27;8.97;;;-1.60;99.90;;;;;;6197988;23;20282;-82
2024/01/20 01:17:45;;;;;;;9.37;9.07;;;-1.60;99.90;;;;;;6197387;23;20206;-83
2024/01/20 01:20:13;;;;;;;9.40;9.10;;;-1.50;99.90;;;;;;6197012;23;20207;-82
2024/01/20 01:22:40;;;;;;;9.60;9.30;;;-1.50;99.90;;;;;;6196689;23;20245;-82
2024/01/20 01:25:09;;;;;;;9.33;9.03;;;-1.50;99.90;;;;;;6197359;23;20255;-80
2024/01/20 01:27:36;;;;;;;9.90;9.60;;;-1.60;99.90;;;;;;6197229;23;20202;-82
2024/01/20 01:30:04;;;;;;;9.50;9.20;;;-1.60;99.90;;;;;;6196784;23;20207;-81
2024/01/20 01:32:32;;;;;;;9.90;9.60;;;-1.70;99.90;;;;;;6196760;23;20309;-81
2024/01/20 01:35:00;;;;;;;9.80;9.50;;;-1.60;99.90;;;;;;6197666;23;20208;-81
2024/01/20 01:37:28;;;;;;;9.63;9.33;;;-1.60;99.90;;;;;;6197490;23;20253;-80
2024/01/20 01:39:56;;;;;;;9.30;9.00;;;-1.50;99.90;;;;;;6198503;23;20199;-81
2024/01/20 01:42:23;;;;;;;9.20;8.90;;;-1.50;99.90;;;;;;6198434;23;20197;-80
2024/01/20 01:44:51;;;;;;;9.70;9.40;;;-1.40;99.90;;;;;;6198742;23;20204;-81
2024/01/20 01:47:19;;;;;;;9.37;9.07;;;-1.40;99.90;;;;;;6198529;23;20667;-80
2024/01/20 01:49:46;;;;;;;9.60;9.30;;;-1.40;99.90;;;;;;6202637;23;20263;-80
2024/01/20 01:52:15;;;;;;;9.90;9.60;;;-1.50;99.90;;;;;;6200951;23;20210;-80
2024/01/20 01:54:43;;;;;;;10.00;9.70;;;-1.50;99.90;;;;;;6198929;23;20225;-80
2024/01/20 01:57:11;;;;;;;9.67;9.37;;;-1.60;99.90;;;;;;6198823;23;20194;-80
2024/01/20 01:59:40;;;;;;;9.80;9.50;;;-1.80;99.90;;;;;;6197858;23;20210;-81
2024/01/20 02:02:07;;;;;;;9.27;8.97;;;-1.80;99.90;;;;;;6198137;23;20211;-80
2024/01/20 02:04:34;;;;;;;9.60;9.30;;;-1.80;99.90;;;;;;6197934;23;20202;-80
2024/01/20 02:07:02;;;;;;;9.97;9.67;;;-1.80;99.90;;;;;;6198003;23;20299;-80
2024/01/20 02:09:33;;;;;;;9.70;9.40;;;-1.70;99.90;;;;;;6197213;23;20220;-80
2024/01/20 02:12:01;;;;;;;9.83;9.53;;;-1.80;99.90;;;;;;6198499;23;20219;-80
2024/01/20 02:14:28;;;;;;;9.70;9.40;;;-1.80;99.90;;;;;;6197880;23;20199;-80
2024/01/20 02:16:55;;;;;;;9.50;9.20;;;-1.90;99.90;;;;;;6197890;23;21038;-81
2024/01/20 02:19:23;;;;;;;9.50;9.20;;;-2.00;99.90;;;;;;6197435;23;20241;-81
2024/01/20 02:21:50;;;;;;;9.70;9.40;;;-2.00;99.90;;;;;;6198605;23;20268;-81
2024/01/20 02:24:19;;;;;;;9.10;8.80;;;-2.00;99.90;;;;;;6201019;23;20250;-81
2024/01/20 02:26:46;;;;;;;9.33;9.03;;;-2.00;99.90;;;;;;6199566;23;20195;-81
2024/01/20 02:29:13;;;;;;;9.60;9.30;;;-2.00;99.90;;;;;;6197469;23;20201;-81
2024/01/20 02:31:41;;;;;;;9.60;9.30;;;-2.00;99.90;;;;;;6199267;23;20200;-81
2024/01/20 02:34:08;;;;;;;9.53;9.23;;;-2.00;99.90;;;;;;6198290;23;20259;-82
2024/01/20 02:36:35;;;;;;;9.60;9.30;;;-2.00;99.90;;;;;;6198424;23;20222;-81
2024/01/20 02:39:03;;;;;;;9.43;9.13;;;-2.10;99.90;;;;;;6198343;23;20203;-80
2024/01/20 02:41:31;;;;;;;9.53;9.23;;;-2.10;99.90;;;;;;6197382;23;20204;-80
2024/01/20 02:43:59;;;;;;;9.87;9.57;;;-2.10;99.90;;;;;;6197389;23;20255;-80
2024/01/20 02:46:26;;;;;;;9.70;9.40;;;-2.10;99.90;;;;;;6197600;23;20197;-81
2024/01/20 02:48:53;;;;;;;9.60;9.30;;;-2.00;99.90;;;;;;6198685;23;20255;-81
2024/01/20 02:51:20;;;;;;;9.57;9.27;;;-2.00;99.90;;;;;;6199564;23;20204;-81
2024/01/20 02:53:48;;;;;;;9.50;9.20;;;-1.90;99.90;;;;;;6197417;23;20209;-81
2024/01/20 02:56:15;;;;;;;9.30;9.00;;;-1.90;99.90;;;;;;6197963;23;20258;-81
2024/01/20 02:58:44;;;;;;;9.40;9.10;;;-1.90;99.90;;;;;;6197615;23;20196;-81
2024/01/20 03:01:11;;;;;;;9.20;8.90;;;-1.90;99.90;;;;;;6197744;23;20199;-81
2024/01/20 03:03:38;;;;;;;9.50;9.20;;;-1.90;99.90;;;;;;6199657;23;20201;-81
2024/01/20 03:06:06;;;;;;;9.10;8.80;;;-2.00;99.90;;;;;;6199346;23;20203;-81
2024/01/20 03:08:33;;;;;;;9.53;9.23;;;-2.00;99.90;;;;;;6197683;23;20196;-81
2024/01/20 03:11:00;;;;;;;9.37;9.07;;;-2.00;99.90;;;;;;6197317;23;20702;-81
2024/01/20 03:13:27;;;;;;;9.43;9.13;;;-2.00;99.90;;;;;;6197181;23;20200;-81
2024/01/20 03:15:56;;;;;;;9.30;9.00;;;-2.00;99.90;;;;;;6197846;23;20257;-81
2024/01/20 03:18:24;;;;;;;9.07;8.77;;;-2.00;99.90;;;;;;6197750;23;20196;-81
2024/01/20 03:20:51;;;;;;;9.50;9.20;;;-1.90;99.90;;;;;;6205816;23;20186;-81
2024/01/20 03:23:18;;;;;;;9.73;9.43;;;-2.00;99.90;;;;;;6201786;23;20198;-81
2024/01/20 03:25:45;;;;;;;9.27;8.97;;;-2.00;99.90;;;;;;6201229;23;20205;-81
2024/01/20 03:28:12;;;;;;;9.23;8.93;;;-2.00;99.90;;;;;;6199350;23;20204;-81
2024/01/20 03:30:40;;;;;;;9.20;8.90;;;-2.00;99.90;;;;;;6198642;23;20214;-81
2024/01/20 03:33:09;;;;;;;9.30;9.00;;;-2.00;99.90;;;;;;6201323;23;20223;-81
2024/01/20 03:35:36;;;;;;;9.37;9.07;;;-2.10;99.90;;;;;;6201490;23;20192;-82
2024/01/20 03:38:04;;;;;;;9.10;8.80;;;-2.10;99.90;;;;;;6198007;23;20191;-82
2024/01/20 03:40:31;;;;;;;9.10;8.80;;;-2.10;99.90;;;;;;6198584;23;20203;-81
2024/01/20 03:42:58;;;;;;;9.30;9.00;;;-2.10;99.90;;;;;;6198921;23;20218;-81
2024/01/20 03:45:25;;;;;;;9.30;9.00;;;-2.10;99.90;;;;;;6198849;23;20208;-81
2024/01/20 03:47:52;;;;;;;9.27;8.97;;;-2.10;99.90;;;;;;6198075;23;20203;-81
2024/01/20 03:50:21;;;;;;;9.03;8.77;;;-2.20;99.90;;;;;;6197158;23;20274;-81
2024/01/20 03:52:49;;;;;;;9.17;8.87;;;-2.20;99.90;;;;;;6197809;23;20275;-82
2024/01/20 03:55:16;;;;;;;9.20;8.90;;;-2.20;99.90;;;;;;6197928;23;20219;-81
2024/01/20 03:57:43;;;;;;;9.23;8.93;;;-2.20;99.90;;;;;;6197156;23;20191;-81
2024/01/20 04:00:12;;;;;;;9.40;9.10;;;-2.20;99.90;;;;;;6196570;23;20277;-81
2024/01/20 04:02:39;;;;;;;9.47;9.17;;;-2.20;99.90;;;;;;6197013;23;20200;-81
2024/01/20 04:05:07;;;;;;;9.23;8.93;;;-2.20;99.90;;;;;;6197957;23;20195;-81
2024/01/20 04:07:36;;;;;;;9.30;9.00;;;-2.20;99.90;;;;;;6198228;23;20208;-81
2024/01/20 04:10:05;;;;;;;9.40;9.10;;;-2.10;99.90;;;;;;6202374;23;20205;-81
2024/01/20 04:12:32;;;;;;;9.63;9.33;;;-2.10;99.90;;;;;;6202301;23;20194;-82
2024/01/20 04:14:59;;;;;;;8.83;8.60;;;-2.10;99.90;;;;;;6200477;23;20202;-81
2024/01/20 04:17:27;;;;;;;9.57;9.27;;;-2.20;99.90;;;;;;6198621;23;20195;-81
2024/01/20 04:19:54;;;;;;;9.27;8.97;;;-2.20;99.90;;;;;;6197910;23;20205;-81
2024/01/20 04:22:21;;;;;;;9.37;9.07;;;-2.20;99.90;;;;;;6197533;23;20202;-81
2024/01/20 04:24:50;;;;;;;9.57;9.27;;;-2.30;99.90;;;;;;6197572;23;20200;-81
2024/01/20 04:27:17;;;;;;;9.50;9.20;;;-2.30;99.90;;;;;;6197144;23;20195;-81
2024/01/20 04:29:44;;;;;;;9.40;9.10;;;-2.40;99.90;;;;;;6196474;23;20214;-82
2024/01/20 04:32:12;;;;;;;9.50;9.20;;;-2.40;99.90;;;;;;6197053;23;20195;-82
2024/01/20 04:34:39;;;;;;;9.10;8.80;;;-2.40;99.90;;;;;;6197314;23;20203;-81
2024/01/20 04:37:07;;;;;;;9.30;9.00;;;-2.40;99.90;;;;;;6197414;23;20218;-81
2024/01/20 04:39:34;;;;;;;9.40;9.10;;;-2.40;99.90;;;;;;6198311;23;20204;-82
2024/01/20 04:42:03;;;;;;;9.50;9.20;;;-2.40;99.90;;;;;;6197466;23;20192;-82
2024/01/20 04:44:30;;;;;;;9.57;9.27;;;-2.40;99.90;;;;;;6199960;23;20208;-81
2024/01/20 04:46:58;;;;;;;9.70;9.40;;;-2.40;99.90;;;;;;6214801;23;20196;-82
2024/01/20 04:49:25;;;;;;;9.53;9.23;;;-2.40;99.90;;;;;;6214503;23;20267;-81
2024/01/20 04:51:52;;;;;;;8.90;8.70;;;-2.50;99.90;;;;;;6214602;23;20243;-82
2024/01/20 04:54:19;;;;;;;9.70;9.40;;;-2.60;99.90;;;;;;6208153;23;20490;-82
2024/01/20 04:56:47;;;;;;;8.80;8.60;;;-2.70;99.90;;;;;;6201087;23;20223;-82
2024/01/20 04:59:15;;;;;;;9.70;9.40;;;-2.70;99.90;;;;;;6200316;23;20223;-81
2024/01/20 05:01:43;;;;;;;9.60;9.30;;;-2.60;99.90;;;;;;6199169;23;20234;-82
2024/01/20 05:04:10;;;;;;;9.30;9.00;;;-2.60;99.90;;;;;;6199571;23;20199;-82
2024/01/20 05:06:37;;;;;;;9.57;9.27;;;-2.50;99.90;;;;;;6199054;23;20202;-82
2024/01/20 05:09:05;;;;;;;9.60;9.30;;;-2.60;99.90;;;;;;6198870;23;20204;-81
2024/01/20 05:11:33;;;;;;;9.30;9.00;;;-2.60;99.90;;;;;;6199321;23;20227;-82
2024/01/20 05:14:00;;;;;;;9.73;9.43;;;-2.60;99.90;;;;;;6200006;23;20206;-82
2024/01/20 05:16:29;;;;;;;9.70;9.40;;;-2.60;99.90;;;;;;6200199;23;20226;-81
2024/01/20 05:18:56;;;;;;;9.50;9.20;;;-2.60;99.90;;;;;;6199479;23;20199;-82
2024/01/20 05:21:23;;;;;;;9.70;9.40;;;-2.60;99.90;;;;;;6199949;23;20219;-82
2024/01/20 05:23:51;;;;;;;9.67;9.37;;;-2.60;99.90;;;;;;6199890;23;20202;-82
2024/01/20 05:26:18;;;;;;;9.63;9.33;;;-2.60;99.90;;;;;;6199578;23;20202;-82
2024/01/20 05:28:45;;;;;;;9.77;9.47;;;-2.50;99.90;;;;;;6199606;23;20212;-82
2024/01/20 05:31:13;;;;;;;9.60;9.30;;;-2.60;99.90;;;;;;6199120;23;20203;-81
2024/01/20 05:33:42;;;;;;;9.93;9.63;;;-2.60;99.90;;;;;;6200053;23;20321;-82
2024/01/20 05:36:13;;;;;;;9.40;9.10;;;-2.80;99.90;;;;;;6199968;23;20222;-81
2024/01/20 05:38:40;;;;;;;9.27;8.97;;;-2.90;99.90;;;;;;6199489;23;20195;-82
2024/01/20 05:41:08;;;;;;;9.90;9.60;;;-3.00;99.90;;;;;;6213200;23;20202;-81
2024/01/20 05:43:35;;;;;;;9.70;9.40;;;-3.00;99.90;;;;;;6202496;23;20268;-82
2024/01/20 05:46:06;;;;;;;9.67;9.37;;;-3.00;99.90;;;;;;6199990;23;20195;-81
2024/01/20 05:48:35;;;;;;;9.97;9.67;;;-3.00;99.90;;;;;;6200199;23;20203;-81
2024/01/20 05:51:05;;;;;;;9.37;9.07;;;-2.90;99.90;;;;;;6214176;22;20254;-79
2024/01/20 05:53:32;;;;;;;9.40;9.10;;;-2.90;99.90;;;;;;6208051;23;20200;-80
2024/01/20 05:55:59;;;;;;;9.37;9.07;;;-2.90;99.90;;;;;;6205225;23;20203;-80
2024/01/20 05:58:31;;;;;;;9.53;9.23;;;-2.90;99.90;;;;;;6203388;23;20216;-81
2024/01/20 06:00:59;;;;;;;9.37;9.07;;;-2.90;99.90;;;;;;6202252;23;20282;-81
2024/01/20 06:03:27;;;;;;;9.47;9.17;;;-2.90;99.90;;;;;;6200618;23;20219;-81
2024/01/20 06:05:54;;;;;;;9.00;8.70;;;-2.80;99.90;;;;;;6207039;22;20204;-80
2024/01/20 06:08:23;;;;;;;9.67;9.37;;;-2.80;99.90;;;;;;6199329;23;20271;-82
2024/01/20 06:10:51;;;;;;;9.10;8.80;;;-2.80;99.90;;;;;;6199267;23;20207;-81
2024/01/20 06:13:18;;;;;;;9.17;8.87;;;-2.80;99.90;;;;;;6199712;23;20227;-81
2024/01/20 06:15:45;;;;;;;9.30;9.00;;;-2.90;99.90;;;;;;6198684;23;20265;-81
2024/01/20 06:18:13;;;;;;;9.60;9.30;;;-3.00;99.90;;;;;;6198578;23;20195;-81
2024/01/20 06:20:40;;;;;;;9.60;9.30;;;-3.00;99.90;;;;;;6201839;23;20221;-81
2024/01/20 06:23:08;;;;;;;9.60;9.30;;;-3.10;99.90;;;;;;6201266;23;20214;-81
2024/01/20 06:25:37;;;;;;;9.40;9.10;;;-3.10;99.90;;;;;;6199655;23;20204;-81
2024/01/20 06:28:05;;;;;;;9.10;8.80;;;-3.10;99.90;;;;;;6199423;23;20262;-81
2024/01/20 06:30:33;;;;;;;8.73;8.53;;;-3.10;99.90;;;;;;6201015;23;20294;-81
2024/01/20 06:33:00;;;;;;;9.10;8.80;;;-3.00;99.90;;;;;;6208039;23;20199;-81
2024/01/20 06:35:27;;;;;;;9.47;9.17;;;-3.00;99.90;;;;;;6213507;23;20208;-80
2024/01/20 06:37:55;;;;;;;9.40;9.10;;;-3.00;99.90;;;;;;6214030;23;20198;-81
2024/01/20 06:40:22;;;;;;;9.70;9.40;;;-3.00;99.90;;;;;;6207380;23;20204;-81
2024/01/20 06:42:51;;;;;;;9.53;9.23;;;-3.00;99.90;;;;;;6206860;23;20204;-80
2024/01/20 06:45:19;;;;;;;9.03;8.73;;;-3.10;99.90;;;;;;6212375;23;20195;-81
2024/01/20 06:47:46;;;;;;;9.30;9.00;;;-3.20;99.90;;;;;;6218586;22;20219;-80
2024/01/20 06:50:17;;;;;;;8.37;8.17;;;-3.10;99.90;;;;;;6219398;22;20248;-80
2024/01/20 06:52:44;;;;;;;9.27;8.97;;;-3.10;99.90;;;;;;6220103;22;20235;-81
2024/01/20 06:55:12;;;;;;;9.27;8.97;;;-3.10;99.90;;;;;;6218524;22;20260;-81
2024/01/20 06:57:39;;;;;;;9.27;8.97;;;-3.00;99.90;;;;;;6214322;23;20263;-81
2024/01/20 07:00:10;;;;;;;9.20;8.90;;;-3.00;99.90;;;;;;6207180;23;20211;-81
2024/01/20 07:02:37;;;;;;;9.37;9.07;;;-2.90;99.90;;;;;;6200469;23;20219;-81
2024/01/20 07:05:05;;;;;;;8.77;8.57;;;-2.90;99.90;;;;;;6199036;23;20204;-82
2024/01/20 07:07:33;;;;;;;9.13;8.83;;;-2.80;99.90;;;;;;6199581;23;20184;-81
2024/01/20 07:10:00;;;;;;;8.63;8.43;;;-2.80;99.90;;;;;;6208894;23;20199;-81
2024/01/20 07:12:27;;;;;;;8.80;8.60;;;-2.80;99.90;;;;;;6199594;23;20222;-81
2024/01/20 07:14:55;;;;;;;9.13;8.83;;;-2.80;99.90;;;;;;6202653;23;20214;-81
2024/01/20 07:17:23;;;;;;;9.37;9.07;;;-2.90;99.90;;;;;;6210521;23;20184;-81
2024/01/20 07:19:51;;;;;;;9.13;8.83;;;-2.90;99.90;;;;;;6207657;23;20246;-81
2024/01/20 07:22:18;;;;;;;9.00;8.70;;;-3.00;99.90;;;;;;6209203;23;20195;-80
2024/01/20 07:24:46;;;;;;;9.53;9.23;;;-3.10;99.90;;;;;;6215736;22;20175;-81
2024/01/20 07:27:13;;;;;;;9.37;9.07;;;-3.00;99.90;;;;;;6219845;22;20180;-79
2024/01/20 07:29:41;;;;;;;9.13;8.83;;;-3.00;99.90;;;;;;6219890;22;20180;-80
2024/01/20 07:32:08;;;;;;;9.10;8.80;;;-2.90;99.90;;;;;;6219799;22;20243;-80
2024/01/20 07:34:37;;;;;;;9.20;8.90;;;-2.90;99.90;;;;;;6219851;22;20187;-81
2024/01/20 07:37:05;;;;;;;9.03;8.73;;;-2.90;99.90;;;;;;6219244;22;20191;-81
2024/01/20 07:39:32;;;;;;;9.50;9.20;;;-2.90;99.90;;;;;;6219683;22;20282;-80
2024/01/20 07:41:59;;;;;;;9.30;9.00;;;-2.90;99.90;;;;;;6219865;22;20210;-80
2024/01/20 07:44:27;;;;;;;9.20;8.90;;;-2.90;99.90;;;;;;6219829;22;20243;-79
2024/01/20 07:46:54;;;;;;;9.47;9.17;;;-2.90;99.90;;;;;;6219796;22;20190;-79
2024/01/20 07:49:21;;;;;;;9.70;9.40;;;-2.80;99.90;;;;;;6219294;22;20204;-81
2024/01/20 07:51:50;;;;;;;9.10;8.80;;;-2.80;99.90;;;;;;6219779;22;20214;-80
2024/01/20 07:54:17;;;;;;;9.43;9.13;;;-2.80;99.90;;;;;;6219831;22;20199;-80
2024/01/20 07:56:44;;;;;;;9.70;9.40;;;-2.80;99.90;;;;;;6215956;22;20212;-81
2024/01/20 07:59:12;;;;;;;9.50;9.20;;;-2.70;99.90;;;;;;6206358;23;20216;-81
2024/01/20 08:01:39;;;;;;;9.27;8.97;;;-2.80;99.90;;;;;;6217130;23;20171;-81
2024/01/20 08:04:07;;;;;;;9.10;8.80;;;-2.80;99.90;;;;;;6206568;22;20203;-81
2024/01/20 08:06:37;;;;;;;9.53;9.23;;;-2.90;99.90;;;;;;6218797;23;20219;-79
2024/01/20 08:09:06;;;;;;;9.33;9.03;;;-2.80;99.90;;;;;;6218327;23;20250;-80
2024/01/20 08:11:33;;;;;;;9.47;9.17;;;-2.80;99.90;;;;;;6218227;23;20203;-81
2024/01/20 08:14:00;;;;;;;9.47;9.17;;;-2.80;99.90;;;;;;6218567;22;20215;-79
2024/01/20 08:16:28;;;;;;;9.43;9.13;;;-2.90;99.90;;;;;;6219716;22;20167;-80
2024/01/20 08:18:56;;;;;;;9.57;9.27;;;-2.90;99.90;;;;;;6219129;22;20186;-80
2024/01/20 08:21:24;;;;;;;9.50;9.20;;;-2.90;99.90;;;;;;6219777;22;20176;-80
2024/01/20 08:23:52;;;;;;;9.33;9.03;;;-2.90;99.90;;;;;;6219193;22;20204;-80
2024/01/20 08:26:21;;;;;;;9.63;9.33;;;-2.80;99.90;;;;;;6206797;22;20262;-81
2024/01/20 08:28:48;;;;;;;9.90;9.60;;;-2.80;99.90;;;;;;6198111;23;20210;-81
2024/01/20 08:31:15;;;;;;;9.90;9.60;;;-2.80;99.90;;;;;;6198968;23;20203;-81
2024/01/20 08:33:43;;;;;;;9.60;9.30;;;-2.80;99.90;;;;;;6200239;23;20203;-81
2024/01/20 08:36:10;;;;;;;9.70;9.40;;;-2.80;99.90;;;;;;6198574;23;20195;-82
2024/01/20 08:38:37;;;;;;;9.83;9.53;;;-2.80;99.90;;;;;;6198995;23;20250;-81
2024/01/20 08:41:09;;;;;;;9.23;8.93;;;-2.90;99.90;;;;;;6198567;23;20209;-80
2024/01/20 08:43:42;;;;;;;9.60;9.30;;;-2.90;99.90;;;;;;6206355;23;20192;-81
2024/01/20 08:46:10;;;;;;;9.43;9.13;;;-2.90;99.90;;;;;;6212290;23;20186;-81
2024/01/20 08:48:37;;;;;;;9.33;9.03;;;-2.80;99.90;;;;;;6214025;23;20206;-80
2024/01/20 08:51:05;;;;;;;9.60;9.30;;;-2.80;99.90;;;;;;6206088;23;20258;-81
2024/01/20 08:53:33;;;;;;;9.40;9.10;;;-2.70;99.90;;;;;;6203229;23;20206;-81
2024/01/20 08:56:01;;;;;;;9.27;8.97;;;-2.60;99.90;;;;;;6201581;23;20204;-81
2024/01/20 08:58:29;;;;;;;9.60;9.30;;;-2.50;99.90;;;;;;6201446;23;20192;-81
2024/01/20 09:00:58;;;;;;;9.17;8.87;;;-2.40;99.90;;;;;;6203717;23;20214;-81
2024/01/20 09:03:25;;;;;;;9.37;9.07;;;-2.30;99.90;;;;;;6202009;23;20204;-81
2024/01/20 09:05:52;;;;;;;9.37;9.07;;;-2.30;99.90;;;;;;6201856;23;20188;-81
2024/01/20 09:08:20;;;;;;;9.90;9.60;;;-2.20;99.90;;;;;;6202815;23;20277;-81
2024/01/20 09:10:47;;;;;;;9.27;8.97;;;-2.20;99.90;;;;;;6202358;23;20213;-81
2024/01/20 09:13:14;;;;;;;9.50;9.20;;;-2.10;99.90;;;;;;6202328;23;20196;-82
2024/01/20 09:15:42;;;;;;;9.10;8.80;;;-2.20;99.90;;;;;;6202570;23;20203;-82
2024/01/20 09:18:11;;;;;;;9.37;9.07;;;-2.20;99.90;;;;;;6205690;23;20282;-81
2024/01/20 09:20:39;;;;;;;9.40;9.10;;;-2.10;99.90;;;;;;6205687;23;20254;-82
2024/01/20 09:23:06;;;;;;;9.40;9.10;;;-2.10;99.90;;;;;;6202049;23;20199;-82
2024/01/20 09:25:34;;;;;;;9.57;9.27;;;-2.20;99.90;;;;;;6203184;23;20197;-81
2024/01/20 09:28:03;;;;;;;9.63;9.33;;;-2.10;99.90;;;;;;6203026;23;20290;-81
2024/01/20 09:30:31;;;;;;;9.33;9.03;;;-2.10;99.90;;;;;;6215271;23;20207;-81
2024/01/20 09:32:58;;;;;;;9.47;9.17;;;-2.00;99.90;;;;;;6212950;23;20206;-82
2024/01/20 09:35:27;;;;;;;9.40;9.10;;;-1.90;99.90;;;;;;6210320;23;20191;-81
2024/01/20 09:37:54;;;;;;;9.13;8.83;;;-1.70;99.90;;;;;;6218361;22;20193;-81
2024/01/20 09:40:23;;;;;;;8.70;8.50;;;-1.60;99.90;;;;;;6220590;22;20216;-82
2024/01/20 09:42:51;;;;;;;9.20;8.90;;;-1.40;99.90;;;;;;6221560;22;20175;-82
2024/01/20 09:45:19;;;;;;;9.50;9.20;;;-1.30;99.90;;;;;;6219726;22;20205;-82
2024/01/20 09:47:47;;;;;;;9.07;8.77;;;-1.30;99.90;;;;;;6213030;23;20264;-82
2024/01/20 09:50:14;;;;;;;9.17;8.87;;;-1.30;99.90;;;;;;6215012;23;20235;-81
2024/01/20 09:52:54;;;;;;;8.50;8.30;;;-1.20;99.90;;;;;;6221662;22;20250;-81
2024/01/20 09:55:23;;;;;;;8.70;8.50;;;-1.10;99.90;;;;;;6221642;22;20173;-81
2024/01/20 09:57:51;;;;;;;8.70;8.50;;;-1.00;99.90;;;;;;6207771;23;20259;-82
2024/01/20 10:00:21;;;;;;;8.80;8.60;;;-0.90;99.90;;;;;;6206365;23;20210;-82
2024/01/20 10:02:49;;;;;;;8.40;8.20;;;-0.70;99.90;;;;;;6201165;23;20214;-82
2024/01/20 10:05:17;;;;;;;8.70;8.50;;;-0.70;99.90;;;;;;6200866;23;20206;-82
2024/01/20 10:07:46;;;;;;;9.03;8.77;;;-0.60;99.90;;;;;;6201515;23;20196;-83
2024/01/20 10:10:21;;;;;;;9.03;8.80;;;-0.40;99.90;;;;;;6203681;23;20278;-82
2024/01/20 10:12:52;;;;;;;8.80;8.60;;;-0.20;99.90;;;;;;6200811;23;20196;-82
2024/01/20 10:15:25;;;;;;;9.30;9.00;;;0.10;99.90;;;;;;6200385;23;20200;-82
2024/01/20 10:17:52;;;;;;;9.10;8.80;;;0.40;99.90;;;;;;6202595;23;20199;-81
2024/01/20 10:20:21;;;;;;;8.27;8.07;;;0.50;99.90;;;;;;6213347;23;20266;-82
2024/01/20 10:22:55;;;;;;;8.83;8.63;;;0.60;99.90;;;;;;6214204;23;20332;-82
2024/01/20 10:25:23;;;;;;;8.67;8.47;;;0.90;99.90;;;;;;6215510;23;20191;-81
2024/01/20 10:27:52;;;;;;;8.90;8.70;;;1.10;99.90;;;;;;6216030;23;20240;-82
2024/01/20 10:30:20;;;;;;;8.67;8.47;;;1.10;99.90;;;;;;6200456;23;20206;-82
2024/01/20 10:32:48;;;;;;;8.83;8.63;;;1.10;99.90;;;;;;6199590;23;20203;-82
2024/01/20 10:35:16;;;;;;;9.37;9.07;;;1.10;99.90;;;;;;6199835;23;20262;-82
2024/01/20 10:37:46;;;;;;;9.23;8.93;;;1.20;99.90;;;;;;6199996;23;20199;-82
2024/01/20 10:40:15;;;;;;;8.97;8.77;;;1.30;99.90;;;;;;6199439;23;20286;-82
2024/01/20 10:42:46;;;;;;;9.20;8.90;;;1.50;99.90;;;;;;6204521;23;20267;-81
2024/01/20 10:45:20;;;;;;;8.70;8.50;;;1.70;99.90;;;;;;6204930;23;20195;-82
2024/01/20 10:48:02;;;;;;;9.03;8.80;;;1.70;99.90;;;;;;6201884;23;20200;-81
2024/01/20 10:50:29;;;;;;;8.87;8.67;;;1.80;99.90;;;;;;6201076;23;20207;-80
2024/01/20 10:52:57;;;;;;;9.20;8.90;;;1.80;99.90;;;;;;6201269;23;20222;-80
2024/01/20 10:55:26;;;;;;;8.93;8.70;;;1.70;99.90;;;;;;6201595;23;20188;-81
2024/01/20 10:57:54;;;;;;;9.27;8.97;;;1.60;99.90;;;;;;6201489;23;20231;-80
2024/01/20 11:00:21;;;;;;;9.27;8.97;;;1.50;99.90;;;;;;6201053;23;20210;-80
2024/01/20 11:02:50;;;;;;;8.80;8.60;;;1.50;99.90;;;;;;6200953;23;20208;-82
2024/01/20 11:05:22;;;;;;;9.10;8.80;;;1.60;99.90;;;;;;6200540;23;20268;-81
2024/01/20 11:08:03;;;;;;;9.43;9.13;;;1.60;99.90;;;;;;6212372;23;20222;-81
2024/01/20 11:10:40;;;;;;;9.13;8.83;;;1.70;99.90;;;;;;6203809;23;20201;-80
2024/01/20 11:13:09;;;;;;;9.37;9.07;;;1.60;99.90;;;;;;6203844;23;20207;-81
2024/01/20 11:15:38;;;;;;;9.20;8.90;;;1.80;99.90;;;;;;6203265;23;20212;-81
2024/01/20 11:18:17;;;;;;;9.23;8.93;;;2.00;99.90;;;;;;6201872;23;20239;-81
2024/01/20 11:20:58;;;;;;;9.13;8.83;;;2.20;99.90;;;;;;6202844;23;21004;-81
2024/01/20 11:23:28;;;;;;;9.30;9.00;;;2.40;99.90;;;;;;6201417;23;20195;-81
2024/01/20 11:25:58;;;;;;;9.53;9.23;;;2.40;99.90;;;;;;6204710;23;20206;-81
2024/01/20 11:28:30;;;;;;;9.30;9.00;;;2.40;99.90;;;;;;6203952;23;20192;-81
2024/01/20 11:30:58;;;;;;;9.60;9.30;;;2.50;99.90;;;;;;6202292;23;20229;-82
2024/01/20 11:33:26;;;;;;;9.37;9.07;;;2.50;99.90;;;;;;6205565;23;20215;-82
2024/01/20 11:35:53;;;;;;;9.37;9.07;;;2.30;99.90;;;;;;6207367;23;20255;-82
2024/01/20 11:38:21;;;;;;;9.60;9.30;;;2.40;99.90;;;;;;6211159;23;20195;-82
2024/01/20 11:40:59;;;;;;;9.70;9.40;;;2.10;99.90;;;;;;6203899;23;20302;-82
2024/01/20 11:43:27;;;;;;;9.53;9.23;;;2.10;99.90;;;;;;6204139;23;20239;-82
2024/01/20 11:45:56;;;;;;;9.30;9.00;;;2.20;99.90;;;;;;6202522;23;20210;-81
2024/01/20 11:48:26;;;;;;;9.47;9.17;;;2.40;99.90;;;;;;6203197;23;20187;-81
2024/01/20 11:50:54;;;;;;;9.70;9.40;;;2.50;99.90;;;;;;6203237;23;20207;-81
2024/01/20 11:53:21;;;;;;;9.90;9.60;;;2.90;99.90;;;;;;6201236;23;20238;-81
2024/01/20 11:55:59;;;;;;;9.80;9.50;;;3.40;99.90;;;;;;6200871;23;20206;-82
2024/01/20 11:58:27;;;;;;;9.90;9.60;;;3.60;99.90;;;;;;6201152;23;20250;-81
2024/01/20 12:00:56;;;;;;;9.67;9.37;;;3.20;99.90;;;;;;6223577;22;20282;-86
2024/01/20 12:03:23;;;;;;;9.47;9.17;;;3.00;99.90;;;;;;6231662;23;20249;-86
2024/01/20 12:05:51;;;;;;;9.60;9.30;;;2.80;99.90;;;;;;6231760;23;20203;-86
2024/01/20 12:08:19;;;;;;;9.40;9.10;;;3.00;99.90;;;;;;6231410;23;20214;-86
2024/01/20 12:10:47;;;;;;;9.40;9.10;;;3.20;99.90;;;;;;6234716;22;20223;-86
2024/01/20 12:13:16;;;;;;;9.77;9.47;;;3.50;99.90;;;;;;6236515;23;20211;-86
2024/01/20 12:15:43;;;;;;;10.30;10.00;;;3.70;99.90;;;;;;6230460;23;20191;-87
2024/01/20 12:18:11;;;;;;;10.10;9.80;;;4.10;99.90;;;;;;6229916;23;20195;-87
2024/01/20 12:20:40;;;;;;;9.50;9.20;;;4.20;99.90;;;;;;6229741;22;20202;-87
2024/01/20 12:23:07;;;;;;;8.97;8.77;;;4.20;99.90;;;;;;6229103;23;20323;-87
2024/01/20 12:25:38;;;;;;;9.53;9.23;;;4.50;99.90;;;;;;6230620;23;20277;-87
2024/01/20 12:28:06;;;;;;;9.60;9.30;;;4.70;99.90;;;;;;6230568;23;20201;-86
2024/01/20 12:30:38;;;;;;;9.40;9.10;;;4.60;99.90;;;;;;6231889;22;20230;-87
2024/01/20 12:33:08;;;;;;;8.83;8.63;;;4.00;99.90;;;;;;6231880;23;20282;-87
2024/01/20 12:35:35;;;;;;;9.23;8.93;;;4.00;99.90;;;;;;6230765;23;20202;-86
2024/01/20 12:38:03;;;;;;;9.43;9.13;;;3.90;99.90;;;;;;6231036;23;20194;-86
2024/01/20 12:40:31;;;;;;;9.47;9.17;;;4.20;99.90;;;;;;6229926;22;20203;-87
2024/01/20 12:43:00;;;;;;;9.40;9.10;;;4.50;99.90;;;;;;6231365;23;20235;-87
2024/01/20 12:45:38;;;;;;;9.20;8.90;;;4.80;99.90;;;;;;6241134;23;20193;-87
2024/01/20 12:48:08;;;;;;;9.50;9.20;;;5.20;99.90;;;;;;6235963;23;20190;-87
2024/01/20 12:50:35;;;;;;;9.77;9.47;;;5.50;99.90;;;;;;6228195;22;20207;-87
2024/01/20 12:53:04;;;;;;;9.40;9.10;;;5.60;99.90;;;;;;6227880;23;20203;-87